createdAt,value
2022-09-17T00:00:18.509Z,54.03
2022-09-17T00:01:18.501Z,51.72
2022-09-17T00:02:18.501Z,56.70
2022-09-17T00:03:18.538Z,57.42
2022-09-17T00:04:18.485Z,51.62
2022-09-17T00:05:18.576Z,56.15
2022-09-17T00:06:18.464Z,56.26
2022-09-17T00:07:18.454Z,54.97
2022-09-17T00:08:18.447Z,60.31
2022-09-17T00:09:18.455Z,58.88
2022-09-17T00:10:18.434Z,52.90
2022-09-17T00:11:18.430Z,57.21
2022-09-17T00:12:18.416Z,61.38
2022-09-17T00:13:18.417Z,54.35
2022-09-17T00:14:18.410Z,56.13
2022-09-17T00:15:18.404Z,49.01
2022-09-17T00:16:18.425Z,57.95
2022-09-17T00:17:18.381Z,56.16
2022-09-17T00:18:18.372Z,56.98
2022-09-17T00:19:18.367Z,58.22
2022-09-17T00:20:18.369Z,56.73
2022-09-17T00:21:18.454Z,58.47
2022-09-17T00:22:18.348Z,59.13
2022-09-17T00:23:18.336Z,54.97
2022-09-17T00:24:18.325Z,59.66
2022-09-17T00:25:18.325Z,59.77
2022-09-17T00:26:18.316Z,52.68
2022-09-17T00:27:18.303Z,53.21
2022-09-17T00:28:18.321Z,58.50
2022-09-17T00:29:18.287Z,60.76
2022-09-17T00:32:18.186Z,56.16
2022-09-17T00:33:19.268Z,52.09
2022-09-17T00:34:19.251Z,60.40
2022-09-17T00:35:19.248Z,53.93
2022-09-17T00:36:19.231Z,53.24
2022-09-17T00:37:20.336Z,54.04
2022-09-17T00:38:19.231Z,48.90
2022-09-17T00:39:19.216Z,57.95
2022-09-17T00:40:19.269Z,57.74
2022-09-17T00:41:19.201Z,57.56
2022-09-17T00:42:19.209Z,60.43
2022-09-17T00:43:19.185Z,56.70
2022-09-17T00:44:19.174Z,56.08
2022-09-17T00:45:19.174Z,58.93
2022-09-17T00:46:19.173Z,53.92
2022-09-17T00:47:19.159Z,55.02
2022-09-17T00:48:19.148Z,54.90
2022-09-17T00:49:19.135Z,48.74
2022-09-17T00:50:19.127Z,57.17
2022-09-17T00:51:19.130Z,51.65
2022-09-17T00:52:19.115Z,50.90
2022-09-17T00:53:19.202Z,52.43
2022-09-17T00:54:19.093Z,61.45
2022-09-17T00:55:19.091Z,51.65
2022-09-17T00:56:19.083Z,61.20
2022-09-17T00:57:19.082Z,58.92
2022-09-17T00:58:19.067Z,54.39
2022-09-17T00:59:19.069Z,58.86
2022-09-17T01:00:19.072Z,62.63
2022-09-17T01:01:19.142Z,57.40
2022-09-17T01:02:19.128Z,61.45
2022-09-17T01:03:19.028Z,58.79
2022-09-17T01:04:19.031Z,59.67
2022-09-17T01:05:19.010Z,60.63
2022-09-17T01:06:19.006Z,61.41
2022-09-17T01:07:19.000Z,55.28
2022-09-17T01:08:19.898Z,58.76
2022-09-17T01:09:19.080Z,52.82
2022-09-17T01:10:18.965Z,52.22
2022-09-17T01:11:18.959Z,56.22
2022-09-17T01:12:18.951Z,46.83
2022-09-17T01:13:18.943Z,42.91
2022-09-17T01:14:18.938Z,58.88
2022-09-17T01:15:18.923Z,49.07
2022-09-17T01:16:20.013Z,54.08
2022-09-17T01:17:18.915Z,56.82
2022-09-17T01:18:18.898Z,62.00
2022-09-17T01:19:18.905Z,57.98
2022-09-17T01:20:18.892Z,58.44
2022-09-17T01:21:18.881Z,58.57
2022-09-17T01:22:18.885Z,59.56
2022-09-17T01:23:18.862Z,57.84
2022-09-17T01:24:18.944Z,60.98
2022-09-17T01:25:18.956Z,55.63
2022-09-17T01:26:18.846Z,57.47
2022-09-17T01:27:18.856Z,52.21
2022-09-17T01:28:18.831Z,60.64
2022-09-17T01:29:18.822Z,50.26
2022-09-17T01:30:18.832Z,58.27
2022-09-17T01:31:18.858Z,55.24
2022-09-17T01:32:18.794Z,43.66
2022-09-17T01:33:18.803Z,58.47
2022-09-17T01:34:18.776Z,51.62
2022-09-17T01:35:18.774Z,56.40
2022-09-17T01:36:18.759Z,59.59
2022-09-17T01:37:18.751Z,54.45
2022-09-17T01:38:18.740Z,43.60
2022-09-17T01:39:18.735Z,59.05
2022-09-17T01:40:18.813Z,53.48
2022-09-17T01:41:18.822Z,47.15
2022-09-17T01:42:18.716Z,53.72
2022-09-17T01:43:18.706Z,57.84
2022-09-17T01:44:18.707Z,53.09
2022-09-17T01:45:18.697Z,61.46
2022-09-17T01:46:18.695Z,54.58
2022-09-17T01:47:21.016Z,52.43
2022-09-17T01:48:19.660Z,58.95
2022-09-17T01:49:18.654Z,54.81
2022-09-17T01:50:18.651Z,56.21
2022-09-17T01:51:18.657Z,57.33
2022-09-17T01:52:18.630Z,57.84
2022-09-17T01:53:18.628Z,51.70
2022-09-17T01:54:18.621Z,52.15
2022-09-17T01:55:18.613Z,56.34
2022-09-17T01:56:18.596Z,51.93
2022-09-17T01:57:18.736Z,55.37
2022-09-17T01:58:18.588Z,50.15
2022-09-17T01:59:18.574Z,43.75
2022-09-17T02:00:19.574Z,56.05
2022-09-17T02:01:18.632Z,60.67
2022-09-17T02:02:18.591Z,41.38
2022-09-17T02:03:18.541Z,57.44
2022-09-17T02:04:18.538Z,49.00
2022-09-17T02:05:18.538Z,46.42
2022-09-17T02:06:18.518Z,49.43
2022-09-17T02:07:18.522Z,47.08
2022-09-17T02:08:18.509Z,50.79
2022-09-17T02:09:18.501Z,53.89
2022-09-17T02:10:18.499Z,41.79
2022-09-17T02:11:18.477Z,50.61
2022-09-17T02:12:18.500Z,45.73
2022-09-17T02:13:18.568Z,54.23
2022-09-17T02:14:18.469Z,48.84
2022-09-17T02:15:18.455Z,41.23
2022-09-17T02:16:18.462Z,50.55
2022-09-17T02:17:19.437Z,45.83
2022-09-17T02:18:18.433Z,54.22
2022-09-17T02:19:18.422Z,60.31
2022-09-17T02:20:22.700Z,54.14
2022-09-17T02:21:19.400Z,55.22
2022-09-17T02:22:18.396Z,45.19
2022-09-17T02:23:18.408Z,43.50
2022-09-17T02:24:18.393Z,55.21
2022-09-17T02:25:18.385Z,55.97
2022-09-17T02:26:18.363Z,55.30
2022-09-17T02:27:18.352Z,45.75
2022-09-17T02:28:18.359Z,51.95
2022-09-17T02:29:18.441Z,53.02
2022-09-17T02:30:18.340Z,52.16
2022-09-17T02:31:18.390Z,50.05
2022-09-17T02:32:18.312Z,50.78
2022-09-17T02:33:18.297Z,48.34
2022-09-17T02:34:19.300Z,48.04
2022-09-17T02:35:18.297Z,60.01
2022-09-17T02:36:18.286Z,53.36
2022-09-17T02:37:18.941Z,56.30
2022-09-17T02:38:18.261Z,51.94
2022-09-17T02:39:18.258Z,46.97
2022-09-17T02:40:18.358Z,49.04
2022-09-17T02:41:18.251Z,43.33
2022-09-17T02:42:18.239Z,52.28
2022-09-17T02:43:18.225Z,52.31
2022-09-17T02:44:18.220Z,52.87
2022-09-17T02:45:18.308Z,56.22
2022-09-17T02:46:18.228Z,54.95
2022-09-17T02:47:18.200Z,60.21
2022-09-17T02:48:18.190Z,47.31
2022-09-17T02:49:18.183Z,42.19
2022-09-17T02:50:18.169Z,54.40
2022-09-17T02:51:18.176Z,50.34
2022-09-17T02:52:18.169Z,50.45
2022-09-17T02:53:18.148Z,47.41
2022-09-17T02:54:18.135Z,59.69
2022-09-17T02:55:18.135Z,45.98
2022-09-17T02:56:18.124Z,57.43
2022-09-17T02:57:18.129Z,50.49
2022-09-17T02:58:18.110Z,45.99
2022-09-17T02:59:18.104Z,53.72
2022-09-17T03:00:18.119Z,53.94
2022-09-17T03:01:18.279Z,52.20
2022-09-17T03:02:18.171Z,49.96
2022-09-17T03:03:18.068Z,47.71
2022-09-17T03:04:18.058Z,47.60
2022-09-17T03:05:18.053Z,49.14
2022-09-17T03:06:18.050Z,39.83
2022-09-17T03:07:18.030Z,43.93
2022-09-17T03:08:18.027Z,49.41
2022-09-17T03:09:18.020Z,56.44
2022-09-17T03:10:18.007Z,51.58
2022-09-17T03:11:18.009Z,54.00
2022-09-17T03:12:18.002Z,55.80
2022-09-17T03:13:17.983Z,59.98
2022-09-17T03:14:17.977Z,54.56
2022-09-17T03:15:17.979Z,57.84
2022-09-17T03:16:18.076Z,58.06
2022-09-17T03:17:18.062Z,63.63
2022-09-17T03:18:17.946Z,52.03
2022-09-17T03:19:17.951Z,52.64
2022-09-17T03:20:17.940Z,58.38
2022-09-17T03:21:17.921Z,59.61
2022-09-17T03:22:18.475Z,55.09
2022-09-17T03:23:17.911Z,58.06
2022-09-17T03:24:17.910Z,61.24
2022-09-17T03:25:17.891Z,57.69
2022-09-17T03:26:17.889Z,53.75
2022-09-17T03:27:17.932Z,54.56
2022-09-17T03:28:17.866Z,59.58
2022-09-17T03:29:17.859Z,55.61
2022-09-17T03:30:17.854Z,59.20
2022-09-17T03:31:17.890Z,59.24
2022-09-17T03:32:17.838Z,51.96
2022-09-17T03:33:17.935Z,58.09
2022-09-17T03:34:17.819Z,56.83
2022-09-17T03:35:17.813Z,56.20
2022-09-17T03:36:17.801Z,59.51
2022-09-17T03:37:17.794Z,59.95
2022-09-17T03:38:17.802Z,61.84
2022-09-17T03:39:17.779Z,54.34
2022-09-17T03:40:17.840Z,51.30
2022-09-17T03:41:17.762Z,58.63
2022-09-17T03:42:18.453Z,60.70
2022-09-17T03:43:17.746Z,59.78
2022-09-17T03:44:18.766Z,54.53
2022-09-17T03:45:17.731Z,62.43
2022-09-17T03:46:17.804Z,55.16
2022-09-17T03:47:17.718Z,58.67
2022-09-17T03:48:17.726Z,58.21
2022-09-17T03:49:17.801Z,56.15
2022-09-17T03:50:17.700Z,53.82
2022-09-17T03:51:17.694Z,60.30
2022-09-17T03:52:17.685Z,63.97
2022-09-17T03:53:17.679Z,59.34
2022-09-17T03:54:17.680Z,57.40
2022-09-17T03:55:17.663Z,58.34
2022-09-17T03:56:17.652Z,60.99
2022-09-17T03:57:17.949Z,60.04
2022-09-17T03:58:17.655Z,53.41
2022-09-17T03:59:17.631Z,57.70
2022-09-17T04:02:36.584Z,57.14
2022-09-17T04:03:36.484Z,60.49
2022-09-17T04:04:36.583Z,58.78
2022-09-17T04:05:36.465Z,65.64
2022-09-17T04:06:36.459Z,62.15
2022-09-17T04:07:36.454Z,61.32
2022-09-17T04:08:36.448Z,56.31
2022-09-17T04:09:36.435Z,63.28
2022-09-17T04:10:36.427Z,62.33
2022-09-17T04:11:37.518Z,60.04
2022-09-17T04:12:37.502Z,59.08
2022-09-17T04:13:37.502Z,59.86
2022-09-17T04:14:37.499Z,56.84
2022-09-17T04:15:37.526Z,61.13
2022-09-17T04:16:37.476Z,60.72
2022-09-17T04:17:37.465Z,51.71
2022-09-17T04:18:37.469Z,60.09
2022-09-17T04:19:37.464Z,49.26
2022-09-17T04:20:37.546Z,53.09
2022-09-17T04:21:37.434Z,56.87
2022-09-17T04:22:37.437Z,56.86
2022-09-17T04:23:37.427Z,53.49
2022-09-17T04:24:37.412Z,59.15
2022-09-17T04:25:37.398Z,57.07
2022-09-17T04:26:37.390Z,53.98
2022-09-17T04:27:37.387Z,55.07
2022-09-17T04:28:37.373Z,57.92
2022-09-17T04:29:37.368Z,58.10
2022-09-17T04:30:37.362Z,50.47
2022-09-17T04:31:37.397Z,56.50
2022-09-17T04:32:38.862Z,55.50
2022-09-17T04:33:37.336Z,54.67
2022-09-17T04:34:37.324Z,58.92
2022-09-17T04:35:37.318Z,63.80
2022-09-17T04:36:37.412Z,60.45
2022-09-17T04:37:37.308Z,59.34
2022-09-17T04:38:37.294Z,58.48
2022-09-17T04:39:37.289Z,57.04
2022-09-17T04:40:37.350Z,58.63
2022-09-17T04:41:37.272Z,58.22
2022-09-17T04:42:37.269Z,64.03
2022-09-17T04:43:37.252Z,60.36
2022-09-17T04:44:37.256Z,60.21
2022-09-17T04:45:37.241Z,55.74
2022-09-17T04:46:37.281Z,62.95
2022-09-17T04:47:37.231Z,56.12
2022-09-17T04:48:37.216Z,62.83
2022-09-17T04:49:37.209Z,59.89
2022-09-17T04:50:37.204Z,54.13
2022-09-17T04:51:37.188Z,57.75
2022-09-17T04:52:37.307Z,63.42
2022-09-17T04:53:37.177Z,59.97
2022-09-17T04:54:37.166Z,63.68
2022-09-17T04:55:37.193Z,61.41
2022-09-17T04:56:37.153Z,58.85
2022-09-17T04:57:37.145Z,55.94
2022-09-17T04:58:37.137Z,59.52
2022-09-17T04:59:37.136Z,60.37
2022-09-17T05:00:37.192Z,62.34
2022-09-17T05:01:37.168Z,56.81
2022-09-17T05:02:37.109Z,61.08
2022-09-17T05:03:37.090Z,65.06
2022-09-17T05:04:37.088Z,66.31
2022-09-17T05:05:37.076Z,60.75
2022-09-17T05:06:37.067Z,62.81
2022-09-17T05:07:37.062Z,61.99
2022-09-17T05:08:37.152Z,62.77
2022-09-17T05:09:37.047Z,64.24
2022-09-17T05:10:37.038Z,63.53
2022-09-17T05:11:37.943Z,69.06
2022-09-17T05:12:37.016Z,66.38
2022-09-17T05:13:37.010Z,70.35
2022-09-17T05:14:37.004Z,67.89
2022-09-17T05:15:36.990Z,68.86
2022-09-17T05:16:37.010Z,65.66
2022-09-17T05:17:37.977Z,62.46
2022-09-17T05:18:36.969Z,64.95
2022-09-17T05:19:36.966Z,59.30
2022-09-17T05:20:36.957Z,67.27
2022-09-17T05:21:36.941Z,61.84
2022-09-17T05:22:36.935Z,60.07
2022-09-17T05:23:36.920Z,58.61
2022-09-17T05:24:38.022Z,60.27
2022-09-17T05:25:36.915Z,61.44
2022-09-17T05:26:36.896Z,63.86
2022-09-17T05:27:36.891Z,62.33
2022-09-17T05:28:36.888Z,60.48
2022-09-17T05:29:36.877Z,60.93
2022-09-17T05:30:36.878Z,62.96
2022-09-17T05:31:36.913Z,56.27
2022-09-17T05:32:37.376Z,63.25
2022-09-17T05:33:36.845Z,63.09
2022-09-17T05:34:36.839Z,62.24
2022-09-17T05:35:36.837Z,58.97
2022-09-17T05:36:36.819Z,64.01
2022-09-17T05:37:36.813Z,63.93
2022-09-17T05:38:36.810Z,56.86
2022-09-17T05:39:36.800Z,63.80
2022-09-17T05:40:36.937Z,63.16
2022-09-17T05:41:36.782Z,60.49
2022-09-17T05:42:36.774Z,59.25
2022-09-17T05:43:36.767Z,62.20
2022-09-17T05:44:36.757Z,59.09
2022-09-17T05:45:36.760Z,63.16
2022-09-17T05:46:36.799Z,62.97
2022-09-17T05:47:36.736Z,61.89
2022-09-17T05:48:36.728Z,61.77
2022-09-17T05:49:36.718Z,61.82
2022-09-17T05:50:36.716Z,61.25
2022-09-17T05:51:36.708Z,64.16
2022-09-17T05:52:36.700Z,60.23
2022-09-17T05:53:36.689Z,63.48
2022-09-17T05:54:36.689Z,55.86
2022-09-17T05:55:36.677Z,62.33
2022-09-17T05:56:36.796Z,61.57
2022-09-17T05:57:36.662Z,63.45
2022-09-17T05:58:36.660Z,62.17
2022-09-17T05:59:36.644Z,62.66
2022-09-17T06:00:36.637Z,64.21
2022-09-17T06:01:36.717Z,63.01
2022-09-17T06:02:37.416Z,62.31
2022-09-17T06:03:36.617Z,62.71
2022-09-17T06:04:36.618Z,63.37
2022-09-17T06:05:37.386Z,60.87
2022-09-17T06:06:36.609Z,60.12
2022-09-17T06:07:36.586Z,59.93
2022-09-17T06:08:36.576Z,60.26
2022-09-17T06:09:36.605Z,62.94
2022-09-17T06:10:36.569Z,61.87
2022-09-17T06:11:36.553Z,62.80
2022-09-17T06:12:36.744Z,61.62
2022-09-17T06:13:37.384Z,62.48
2022-09-17T06:14:36.531Z,61.68
2022-09-17T06:15:36.615Z,62.23
2022-09-17T06:16:36.598Z,61.91
2022-09-17T06:17:36.678Z,62.06
2022-09-17T06:18:36.503Z,60.69
2022-09-17T06:19:36.514Z,61.03
2022-09-17T06:20:36.524Z,65.71
2022-09-17T06:21:36.480Z,64.54
2022-09-17T06:22:37.464Z,63.85
2022-09-17T06:23:36.460Z,63.84
2022-09-17T06:24:36.454Z,62.41
2022-09-17T06:25:36.445Z,64.40
2022-09-17T06:26:36.445Z,64.65
2022-09-17T06:27:36.433Z,62.93
2022-09-17T06:28:41.286Z,63.30
2022-09-17T06:29:38.414Z,64.60
2022-09-17T06:30:36.409Z,64.62
2022-09-17T06:31:36.449Z,66.14
2022-09-17T06:32:37.606Z,64.05
2022-09-17T06:33:36.397Z,60.98
2022-09-17T06:34:36.377Z,62.52
2022-09-17T06:35:36.374Z,61.16
2022-09-17T06:36:36.369Z,63.27
2022-09-17T06:37:36.368Z,63.34
2022-09-17T06:38:36.347Z,64.42
2022-09-17T06:39:36.344Z,60.32
2022-09-17T06:40:36.399Z,62.87
2022-09-17T06:41:36.324Z,63.50
2022-09-17T06:42:36.327Z,64.22
2022-09-17T06:43:36.310Z,63.53
2022-09-17T06:44:36.398Z,60.64
2022-09-17T06:45:36.293Z,63.25
2022-09-17T06:46:36.329Z,62.72
2022-09-17T06:47:36.283Z,61.40
2022-09-17T06:48:36.268Z,63.51
2022-09-17T06:49:36.259Z,62.98
2022-09-17T06:50:40.607Z,63.63
2022-09-17T06:51:38.243Z,64.41
2022-09-17T06:52:36.235Z,63.21
2022-09-17T06:53:36.235Z,60.43
2022-09-17T06:54:36.221Z,64.13
2022-09-17T06:55:36.216Z,63.79
2022-09-17T06:56:36.216Z,62.73
2022-09-17T06:57:36.195Z,65.19
2022-09-17T06:58:36.195Z,62.79
2022-09-17T06:59:36.187Z,59.37
2022-09-17T07:00:36.337Z,65.24
2022-09-17T07:01:36.174Z,61.93
2022-09-17T07:02:36.163Z,63.20
2022-09-17T07:03:36.159Z,63.17
2022-09-17T07:04:36.145Z,64.85
2022-09-17T07:05:36.144Z,61.22
2022-09-17T07:06:36.129Z,63.12
2022-09-17T07:07:36.126Z,59.56
2022-09-17T07:08:36.130Z,64.18
2022-09-17T07:09:36.135Z,64.65
2022-09-17T07:10:36.099Z,62.70
2022-09-17T07:11:36.112Z,61.97
2022-09-17T07:12:36.095Z,63.52
2022-09-17T07:13:36.086Z,61.31
2022-09-17T07:14:36.067Z,59.69
2022-09-17T07:15:37.067Z,60.59
2022-09-17T07:16:36.347Z,61.26
2022-09-17T07:17:36.056Z,59.06
2022-09-17T07:18:36.052Z,61.77
2022-09-17T07:19:36.031Z,66.78
2022-09-17T07:20:36.024Z,64.10
2022-09-17T07:21:36.017Z,64.43
2022-09-17T07:22:36.061Z,62.63
2022-09-17T07:23:35.998Z,62.85
2022-09-17T07:24:36.908Z,62.07
2022-09-17T07:25:36.006Z,64.24
2022-09-17T07:26:35.973Z,63.23
2022-09-17T07:27:35.965Z,61.79
2022-09-17T07:28:35.964Z,63.68
2022-09-17T07:29:35.950Z,61.97
2022-09-17T07:30:35.949Z,64.16
2022-09-17T07:31:35.953Z,62.80
2022-09-17T07:32:36.029Z,62.96
2022-09-17T07:33:35.917Z,62.80
2022-09-17T07:34:35.908Z,61.55
2022-09-17T07:35:35.904Z,64.16
2022-09-17T07:36:35.893Z,63.98
2022-09-17T07:37:35.888Z,64.60
2022-09-17T07:38:35.882Z,62.83
2022-09-17T07:39:35.870Z,65.26
2022-09-17T07:40:35.987Z,66.09
2022-09-17T07:41:35.856Z,63.90
2022-09-17T07:42:35.855Z,61.41
2022-09-17T07:43:35.840Z,61.57
2022-09-17T07:44:35.833Z,62.96
2022-09-17T07:45:35.824Z,64.48
2022-09-17T07:46:35.863Z,65.60
2022-09-17T07:47:35.803Z,60.73
2022-09-17T07:48:35.917Z,63.94
2022-09-17T07:49:35.791Z,64.84
2022-09-17T07:50:35.785Z,63.84
2022-09-17T07:51:35.786Z,64.20
2022-09-17T07:52:35.773Z,63.64
2022-09-17T07:53:35.760Z,64.00
2022-09-17T07:54:35.756Z,64.00
2022-09-17T07:55:35.754Z,62.58
2022-09-17T07:56:35.747Z,64.31
2022-09-17T07:57:35.732Z,65.18
2022-09-17T07:58:35.726Z,63.75
2022-09-17T07:59:35.718Z,63.96
2022-09-17T08:00:35.713Z,65.25
2022-09-17T08:01:35.794Z,63.27
2022-09-17T08:02:35.776Z,63.23
2022-09-17T08:03:35.687Z,63.73
2022-09-17T08:04:35.779Z,62.66
2022-09-17T08:05:35.675Z,64.01
2022-09-17T08:06:35.660Z,63.00
2022-09-17T08:07:35.655Z,64.36
2022-09-17T08:08:35.644Z,62.80
2022-09-17T08:09:35.638Z,63.21
2022-09-17T08:10:35.633Z,64.53
2022-09-17T08:11:55.073Z,61.46
2022-09-17T08:12:37.618Z,63.15
2022-09-17T08:13:35.628Z,59.31
2022-09-17T08:14:37.519Z,62.01
2022-09-17T08:15:35.594Z,64.23
2022-09-17T08:16:35.648Z,61.45
2022-09-17T08:17:35.644Z,63.53
2022-09-17T08:18:35.571Z,64.03
2022-09-17T08:19:35.579Z,63.65
2022-09-17T08:20:35.661Z,64.98
2022-09-17T08:21:35.548Z,65.34
2022-09-17T08:22:35.538Z,65.01
2022-09-17T08:23:35.533Z,69.52
2022-09-17T08:24:35.528Z,65.61
2022-09-17T08:25:35.532Z,62.27
2022-09-17T08:26:35.510Z,61.95
2022-09-17T08:27:35.501Z,63.56
2022-09-17T08:28:35.491Z,62.99
2022-09-17T08:29:36.143Z,63.62
2022-09-17T08:30:35.489Z,65.01
2022-09-17T08:31:35.556Z,65.59
2022-09-17T08:32:35.461Z,65.57
2022-09-17T08:33:35.455Z,62.97
2022-09-17T08:34:35.449Z,62.88
2022-09-17T08:35:35.468Z,63.11
2022-09-17T08:36:35.541Z,63.39
2022-09-17T08:37:35.440Z,62.74
2022-09-17T08:38:38.036Z,63.98
2022-09-17T08:39:36.414Z,63.26
2022-09-17T08:40:35.464Z,60.42
2022-09-17T08:41:35.406Z,62.66
2022-09-17T08:42:35.943Z,65.34
2022-09-17T08:43:35.385Z,63.55
2022-09-17T08:44:35.377Z,62.54
2022-09-17T08:45:35.372Z,63.49
2022-09-17T08:46:35.415Z,61.20
2022-09-17T08:47:35.354Z,61.54
2022-09-17T08:48:35.349Z,63.47
2022-09-17T08:49:35.352Z,61.22
2022-09-17T08:50:35.339Z,63.85
2022-09-17T08:51:35.360Z,64.21
2022-09-17T08:52:35.415Z,63.98
2022-09-17T08:53:35.313Z,66.33
2022-09-17T08:54:35.295Z,64.66
2022-09-17T08:55:35.381Z,61.96
2022-09-17T08:56:35.279Z,61.70
2022-09-17T08:57:35.274Z,64.88
2022-09-17T08:58:35.266Z,63.08
2022-09-17T08:59:35.256Z,62.85
2022-09-17T09:00:35.256Z,67.46
2022-09-17T09:01:35.311Z,64.20
2022-09-17T09:02:36.037Z,62.94
2022-09-17T09:03:35.229Z,66.61
2022-09-17T09:04:35.221Z,65.58
2022-09-17T09:05:35.213Z,60.91
2022-09-17T09:06:35.207Z,63.98
2022-09-17T09:07:35.216Z,63.37
2022-09-17T09:08:35.293Z,61.85
2022-09-17T09:09:35.186Z,63.64
2022-09-17T09:10:35.188Z,65.82
2022-09-17T09:11:35.168Z,62.93
2022-09-17T09:12:35.180Z,64.00
2022-09-17T09:13:35.146Z,62.68
2022-09-17T09:14:35.145Z,63.79
2022-09-17T09:15:35.136Z,63.95
2022-09-17T09:16:35.199Z,62.76
2022-09-17T09:17:35.125Z,64.48
2022-09-17T09:18:35.117Z,66.60
2022-09-17T09:19:35.105Z,68.06
2022-09-17T09:20:35.104Z,63.42
2022-09-17T09:21:35.088Z,63.64
2022-09-17T09:22:35.081Z,64.15
2022-09-17T09:23:35.100Z,67.77
2022-09-17T09:24:35.166Z,67.72
2022-09-17T09:25:36.029Z,65.52
2022-09-17T09:26:35.054Z,67.65
2022-09-17T09:27:35.037Z,66.55
2022-09-17T09:28:35.038Z,67.03
2022-09-17T09:29:35.024Z,66.98
2022-09-17T09:30:35.016Z,69.40
2022-09-17T09:31:35.084Z,68.98
2022-09-17T09:32:35.005Z,68.66
2022-09-17T09:33:34.999Z,66.84
2022-09-17T09:34:34.985Z,67.02
2022-09-17T09:35:34.977Z,69.72
2022-09-17T09:36:34.998Z,65.88
2022-09-17T09:37:34.959Z,69.39
2022-09-17T09:38:34.964Z,65.76
2022-09-17T09:39:40.336Z,65.81
2022-09-17T09:40:37.142Z,65.13
2022-09-17T09:41:35.459Z,64.90
2022-09-17T09:42:34.931Z,67.73
2022-09-17T09:43:59.530Z,66.43
2022-09-17T09:44:36.918Z,62.42
2022-09-17T09:45:34.908Z,66.63
2022-09-17T09:46:34.970Z,63.97
2022-09-17T09:47:34.895Z,64.97
2022-09-17T09:48:34.877Z,66.35
2022-09-17T09:49:34.888Z,65.40
2022-09-17T09:51:01.915Z,64.58
2022-09-17T09:51:36.853Z,66.98
2022-09-17T09:52:34.852Z,65.29
2022-09-17T09:53:34.837Z,63.17
2022-09-17T09:54:34.840Z,64.91
2022-09-17T09:55:34.828Z,64.03
2022-09-17T09:56:34.917Z,64.86
2022-09-17T09:57:34.842Z,66.89
2022-09-17T09:58:34.797Z,64.22
2022-09-17T09:59:34.790Z,65.57
2022-09-17T10:00:34.785Z,65.68
2022-09-17T10:01:34.853Z,66.56
2022-09-17T10:02:34.883Z,65.98
2022-09-17T10:03:34.757Z,68.59
2022-09-17T10:04:34.746Z,64.83
2022-09-17T10:05:34.736Z,64.68
2022-09-17T10:06:34.734Z,63.08
2022-09-17T10:07:34.740Z,65.43
2022-09-17T10:08:34.710Z,62.68
2022-09-17T10:09:34.711Z,66.00
2022-09-17T10:10:34.698Z,63.69
2022-09-17T10:11:34.698Z,64.40
2022-09-17T10:12:34.787Z,65.96
2022-09-17T10:13:34.675Z,63.24
2022-09-17T10:14:34.671Z,62.28
2022-09-17T10:15:34.662Z,64.65
2022-09-17T10:16:34.674Z,63.83
2022-09-17T10:17:34.653Z,64.34
2022-09-17T10:18:34.648Z,64.71
2022-09-17T10:19:34.630Z,65.45
2022-09-17T10:20:34.620Z,67.09
2022-09-17T10:21:35.548Z,66.27
2022-09-17T10:22:34.609Z,63.13
2022-09-17T10:23:34.596Z,64.59
2022-09-17T10:24:34.599Z,65.38
2022-09-17T10:25:34.583Z,66.40
2022-09-17T10:26:34.584Z,66.35
2022-09-17T10:27:34.567Z,67.07
2022-09-17T10:28:34.660Z,66.62
2022-09-17T10:29:34.553Z,63.69
2022-09-17T10:30:34.540Z,64.03
2022-09-17T10:31:34.578Z,64.58
2022-09-17T10:32:34.530Z,63.62
2022-09-17T10:33:34.519Z,65.48
2022-09-17T10:34:34.516Z,64.18
2022-09-17T10:35:34.495Z,62.86
2022-09-17T10:36:37.950Z,63.49
2022-09-17T10:37:35.483Z,65.43
2022-09-17T10:38:34.480Z,65.55
2022-09-17T10:39:34.469Z,65.34
2022-09-17T10:40:34.489Z,65.99
2022-09-17T10:41:34.455Z,62.47
2022-09-17T10:42:34.441Z,65.99
2022-09-17T10:43:34.434Z,64.81
2022-09-17T10:44:34.525Z,63.49
2022-09-17T10:45:34.446Z,64.45
2022-09-17T10:46:34.460Z,64.39
2022-09-17T10:47:34.409Z,64.11
2022-09-17T10:48:34.391Z,65.51
2022-09-17T10:49:34.406Z,64.62
2022-09-17T10:50:34.993Z,64.00
2022-09-17T10:51:34.376Z,63.80
2022-09-17T10:52:35.496Z,63.64
2022-09-17T10:53:34.354Z,63.88
2022-09-17T10:54:34.348Z,63.34
2022-09-17T10:55:34.347Z,65.92
2022-09-17T10:56:34.347Z,63.52
2022-09-17T10:57:34.328Z,62.77
2022-09-17T10:58:37.159Z,63.44
2022-09-17T10:59:35.307Z,63.71
2022-09-17T11:00:34.331Z,64.05
2022-09-17T11:01:34.404Z,65.68
2022-09-17T11:02:35.350Z,67.26
2022-09-17T11:03:34.276Z,68.54
2022-09-17T11:04:34.265Z,63.00
2022-09-17T11:05:34.286Z,63.91
2022-09-17T11:06:34.248Z,64.01
2022-09-17T11:07:34.253Z,62.31
2022-09-17T11:08:34.243Z,64.13
2022-09-17T11:09:34.239Z,63.36
2022-09-17T11:10:34.228Z,59.86
2022-09-17T11:11:34.206Z,63.02
2022-09-17T11:12:34.203Z,64.67
2022-09-17T11:13:34.192Z,64.06
2022-09-17T11:14:34.191Z,66.28
2022-09-17T11:15:34.172Z,61.27
2022-09-17T11:16:34.350Z,62.58
2022-09-17T11:17:34.161Z,63.09
2022-09-17T11:18:34.151Z,64.71
2022-09-17T11:19:34.159Z,68.72
2022-09-17T11:20:34.135Z,65.37
2022-09-17T11:21:34.132Z,63.69
2022-09-17T11:22:34.120Z,63.62
2022-09-17T11:23:34.139Z,62.32
2022-09-17T11:24:34.119Z,64.00
2022-09-17T11:25:34.098Z,62.86
2022-09-17T11:26:34.094Z,64.86
2022-09-17T11:27:34.084Z,65.07
2022-09-17T11:28:34.073Z,64.30
2022-09-17T11:29:34.995Z,63.42
2022-09-17T11:30:34.058Z,64.82
2022-09-17T11:31:34.155Z,63.41
2022-09-17T11:32:34.144Z,63.74
2022-09-17T11:33:34.036Z,64.43
2022-09-17T11:34:34.021Z,64.34
2022-09-17T11:35:34.022Z,62.27
2022-09-17T11:36:34.016Z,65.01
2022-09-17T11:37:34.010Z,64.91
2022-09-17T11:38:33.993Z,61.20
2022-09-17T11:39:33.984Z,64.11
2022-09-17T11:40:34.027Z,63.12
2022-09-17T11:41:33.967Z,63.83
2022-09-17T11:42:33.967Z,64.12
2022-09-17T11:43:33.955Z,61.96
2022-09-17T11:44:33.941Z,62.69
2022-09-17T11:45:33.954Z,62.36
2022-09-17T11:46:33.985Z,62.74
2022-09-17T11:47:33.920Z,64.68
2022-09-17T11:48:34.009Z,63.61
2022-09-17T11:49:33.912Z,62.56
2022-09-17T11:50:33.895Z,61.73
2022-09-17T11:51:33.899Z,63.61
2022-09-17T11:52:33.882Z,62.05
2022-09-17T11:53:33.876Z,63.89
2022-09-17T11:54:33.873Z,64.32
2022-09-17T11:55:33.861Z,63.65
2022-09-17T11:56:33.847Z,64.12
2022-09-17T11:57:33.868Z,63.30
2022-09-17T11:58:33.832Z,62.27
2022-09-17T11:59:33.820Z,61.66
2022-09-17T12:00:33.818Z,63.50
2022-09-17T12:01:33.862Z,62.40
2022-09-17T12:02:33.957Z,64.36
2022-09-17T12:03:33.795Z,65.10
2022-09-17T12:04:33.879Z,65.08
2022-09-17T12:05:33.770Z,64.90
2022-09-17T12:06:33.770Z,63.35
2022-09-17T12:07:33.755Z,62.08
2022-09-17T12:08:33.747Z,62.67
2022-09-17T12:09:34.602Z,63.61
2022-09-17T12:10:34.096Z,63.07
2022-09-17T12:11:33.721Z,60.91
2022-09-17T12:12:49.780Z,60.68
2022-09-17T12:13:35.705Z,62.38
2022-09-17T12:14:33.715Z,62.49
2022-09-17T12:15:33.693Z,62.83
2022-09-17T12:16:33.771Z,63.41
2022-09-17T12:17:33.676Z,62.98
2022-09-17T12:18:33.849Z,63.81
2022-09-17T12:19:33.662Z,63.17
2022-09-17T12:20:33.746Z,62.98
2022-09-17T12:21:33.641Z,63.94
2022-09-17T12:22:36.969Z,65.08
2022-09-17T12:23:35.638Z,62.23
2022-09-17T12:24:33.628Z,61.96
2022-09-17T12:25:33.609Z,62.61
2022-09-17T12:26:33.653Z,63.16
2022-09-17T12:27:33.599Z,62.57
2022-09-17T12:28:33.587Z,63.20
2022-09-17T12:29:33.586Z,61.72
2022-09-17T12:30:33.577Z,63.31
2022-09-17T12:31:33.673Z,60.68
2022-09-17T12:32:33.555Z,62.28
2022-09-17T12:33:33.548Z,62.58
2022-09-17T12:34:33.552Z,63.16
2022-09-17T12:36:02.379Z,62.15
2022-09-17T12:36:35.631Z,64.01
2022-09-17T12:37:33.522Z,61.87
2022-09-17T12:38:33.520Z,61.24
2022-09-17T12:39:33.515Z,63.49
2022-09-17T12:40:33.544Z,59.96
2022-09-17T12:41:33.490Z,62.41
2022-09-17T12:42:33.484Z,64.02
2022-09-17T12:43:33.476Z,63.72
2022-09-17T12:44:33.456Z,63.92
2022-09-17T12:45:34.468Z,61.78
2022-09-17T12:46:33.505Z,61.91
2022-09-17T12:47:33.446Z,60.89
2022-09-17T12:48:33.432Z,62.27
2022-09-17T12:49:34.098Z,63.03
2022-09-17T12:50:33.427Z,63.17
2022-09-17T12:51:33.413Z,64.08
2022-09-17T12:52:33.510Z,65.30
2022-09-17T12:53:33.400Z,64.94
2022-09-17T12:54:33.385Z,65.29
2022-09-17T12:55:33.385Z,62.01
2022-09-17T12:56:33.367Z,64.94